Aérodrome :
LOGIN :

S'inscrire | Disclaimer

   EN    FR    IT 

 










Légende :    VFR   VFR Marginal   IFR   IFR Intensif   IFR Très Intensif
Visi : 
Plafond : 
>= 8 km
>= 3000ft
5 à 8 km
1000 à 3000 ft
1500m à 5 km
500 à 1000 ft
800 à 1500m
200 à 500 ft
< 800m
< 200 ft
Symboles :   Orages  Brouillard  Fortes neiges  Fortes précipitations  Vent > 20 kt
SIGMETs :   Divers  Orages  Givrage  Turbulence  Onde Orograph.  Cendres Volcan.






- Altitude de l'aérodrome : 47 ft
- Code IATA : BMA


ESSB - Stockholm-Bromma

DERNIER METAR :
  • 281620Z 13012KT 9999 SCT020 BKN032 13/08 Q1026

METARs EXPIRÉS :
  • 281550Z 13013KT 9999 SCT019 BKN032 13/08 Q1026
  • 281520Z 14012KT 9999 SCT019 BKN032 13/08 Q1026
  • 281450Z 14011KT 9999 FEW019 BKN027 13/09 Q1026
  • 281420Z 13013KT 9999 FEW021 BKN025 13/08 Q1026
  • 281350Z 13014KT 9999 FEW021 BKN025 13/08 Q1026

TAF TAF ESSB
Valide du 28 à 15h jusqu'au 28 à 21h UTC


281430Z 2815/2821 14015KT 9999 BKN025



MET'MAP, la Météo Aéronautique d'un coup d'oeil ! - Copyright ORBIFLY Décembre 2007 - Disclaimer

ORBIFLY MET'MAP TEAM :

Programmation & Développement : Alexandra Zaïnal
Sur une idée originale de : Baudouin d'Aumeries
Assistance à la programmation : Marc-Olivier Méhu
Soutien technique & logistique : Manuel Goepfert

Contact : metmap@orbifly.com




SOURCES & CREDITS :

   NOAA